createdAt,value
2019-02-25T00:01:49.728Z,47.03
2019-02-25T00:04:15.697Z,47.15
2019-02-25T00:06:41.701Z,47.11
2019-02-25T00:09:07.675Z,46.91
2019-02-25T00:11:33.657Z,47.00
2019-02-25T00:13:59.716Z,47.05
2019-02-25T00:16:25.688Z,47.19
2019-02-25T00:18:51.758Z,47.08
2019-02-25T00:21:17.839Z,46.94
2019-02-25T00:23:43.843Z,46.93
2019-02-25T00:26:09.927Z,46.98
2019-02-25T00:28:35.895Z,46.90
2019-02-25T00:31:01.916Z,46.97
2019-02-25T00:33:27.883Z,46.99
2019-02-25T00:35:53.944Z,46.93
2019-02-25T00:38:19.928Z,46.92
2019-02-25T00:40:45.916Z,47.07
2019-02-25T00:43:11.908Z,47.05
2019-02-25T00:45:37.893Z,46.90
2019-02-25T00:48:03.886Z,46.96
2019-02-25T00:50:29.895Z,46.86
2019-02-25T00:52:55.863Z,46.85
2019-02-25T00:55:21.892Z,46.89
2019-02-25T00:57:47.852Z,46.81
2019-02-25T01:00:13.889Z,46.84
2019-02-25T01:02:39.863Z,46.83
2019-02-25T01:05:05.858Z,46.83
2019-02-25T01:07:31.835Z,46.85
2019-02-25T01:09:57.826Z,47.14
2019-02-25T01:12:23.811Z,47.05
2019-02-25T01:14:49.801Z,47.22
2019-02-25T01:17:15.781Z,47.07
2019-02-25T01:19:41.766Z,47.14
2019-02-25T01:22:07.755Z,47.10
2019-02-25T01:24:33.732Z,47.03
2019-02-25T01:26:59.840Z,47.06
2019-02-25T01:29:25.824Z,47.08
2019-02-25T01:31:51.795Z,46.88
2019-02-25T01:34:17.777Z,46.89
2019-02-25T01:36:43.827Z,46.93
2019-02-25T01:39:09.837Z,46.78
2019-02-25T01:41:35.890Z,47.00
2019-02-25T01:44:01.931Z,46.95
2019-02-25T01:46:27.919Z,46.96
2019-02-25T01:48:54.007Z,46.82
2019-02-25T01:51:22.047Z,46.95
2019-02-25T01:53:47.746Z,46.95
2019-02-25T01:56:13.715Z,46.99
2019-02-25T01:58:39.768Z,47.03
2019-02-25T02:01:05.730Z,46.95
2019-02-25T02:03:31.818Z,47.11
2019-02-25T02:05:57.797Z,47.24
2019-02-25T02:08:23.798Z,47.20
2019-02-25T02:10:49.774Z,46.96
2019-02-25T02:13:15.746Z,46.95
2019-02-25T02:15:41.752Z,46.83
2019-02-25T02:18:07.765Z,46.85
2019-02-25T02:20:33.798Z,47.09
2019-02-25T02:22:59.834Z,46.79
2019-02-25T02:25:25.838Z,46.84
2019-02-25T02:27:51.855Z,47.49
2019-02-25T02:30:17.834Z,47.65
2019-02-25T02:32:43.887Z,47.70
2019-02-25T02:35:09.961Z,47.82
2019-02-25T02:37:36.025Z,47.91
2019-02-25T02:40:02.068Z,47.96
2019-02-25T02:42:28.168Z,47.93
2019-02-25T02:44:54.137Z,48.01
2019-02-25T02:47:20.129Z,48.01
2019-02-25T02:49:46.134Z,48.07
2019-02-25T02:52:12.175Z,48.02
2019-02-25T02:54:38.155Z,48.08
2019-02-25T02:57:04.219Z,48.11
2019-02-25T02:59:30.191Z,48.11
2019-02-25T03:01:56.182Z,48.07
2019-02-25T03:04:22.163Z,48.09
2019-02-25T03:06:48.137Z,48.11
2019-02-25T03:09:14.199Z,48.13
2019-02-25T03:11:40.168Z,48.11
2019-02-25T03:14:06.248Z,48.13
2019-02-25T03:16:32.228Z,48.17
2019-02-25T03:18:58.294Z,48.16
2019-02-25T03:21:24.278Z,48.17
2019-02-25T03:23:50.266Z,48.16
2019-02-25T03:26:16.257Z,48.21
2019-02-25T03:28:42.305Z,48.22
2019-02-25T03:31:08.328Z,48.23
2019-02-25T03:33:34.494Z,48.25
2019-02-25T03:36:00.459Z,48.26
2019-02-25T03:38:26.527Z,48.26
2019-02-25T03:40:52.496Z,48.25
2019-02-25T03:43:18.621Z,48.31
2019-02-25T03:45:44.604Z,48.31
2019-02-25T03:48:10.660Z,48.28
2019-02-25T03:50:36.636Z,48.25
2019-02-25T03:53:02.627Z,48.24
2019-02-25T03:55:28.667Z,48.20
2019-02-25T03:57:54.698Z,48.19
2019-02-25T04:00:20.713Z,48.17
2019-02-25T04:02:46.688Z,48.17
2019-02-25T04:05:12.689Z,48.16
2019-02-25T04:07:38.676Z,48.15
2019-02-25T04:10:04.645Z,48.15
2019-02-25T04:12:30.619Z,48.17
2019-02-25T04:14:56.620Z,48.15
2019-02-25T04:17:22.594Z,48.13
2019-02-25T04:19:48.581Z,48.15
2019-02-25T04:22:14.573Z,48.17
2019-02-25T04:24:40.537Z,48.20
2019-02-25T04:27:06.611Z,48.14
2019-02-25T04:29:32.601Z,48.18
2019-02-25T04:31:58.652Z,48.23
2019-02-25T04:34:24.623Z,48.27
2019-02-25T04:36:50.619Z,48.17
2019-02-25T04:39:16.588Z,48.18
2019-02-25T04:41:42.561Z,48.15
2019-02-25T04:44:08.534Z,48.09
2019-02-25T04:46:34.528Z,48.08
2019-02-25T04:49:00.521Z,48.09
2019-02-25T04:51:26.504Z,48.13
2019-02-25T04:53:52.492Z,48.11
2019-02-25T04:56:18.538Z,48.08
2019-02-25T04:58:44.583Z,48.03
2019-02-25T05:01:10.637Z,48.16
2019-02-25T05:03:36.614Z,48.29
2019-02-25T05:06:02.669Z,48.20
2019-02-25T05:08:28.657Z,48.11
2019-02-25T05:10:54.655Z,48.11
2019-02-25T05:13:20.652Z,48.11
2019-02-25T05:15:46.692Z,48.14
2019-02-25T05:18:12.687Z,48.13
2019-02-25T05:20:38.741Z,48.18
2019-02-25T05:23:04.754Z,48.18
2019-02-25T05:25:30.731Z,48.16
2019-02-25T05:27:56.735Z,48.08
2019-02-25T05:30:22.722Z,48.11
2019-02-25T05:32:48.819Z,48.11
2019-02-25T05:35:14.806Z,48.09
2019-02-25T05:37:40.842Z,48.09
2019-02-25T05:40:06.829Z,48.10
2019-02-25T05:42:32.878Z,48.16
2019-02-25T05:44:58.852Z,48.15
2019-02-25T05:47:24.855Z,48.12
2019-02-25T05:49:50.884Z,48.10
2019-02-25T05:52:17.160Z,48.15
2019-02-25T05:54:43.253Z,48.14
2019-02-25T05:57:09.229Z,48.14
2019-02-25T05:59:35.256Z,48.08
2019-02-25T06:02:01.282Z,48.15
2019-02-25T06:04:27.251Z,48.16
2019-02-25T06:06:53.256Z,48.16
2019-02-25T06:09:19.236Z,48.14
2019-02-25T06:11:45.244Z,48.17
2019-02-25T06:14:11.242Z,48.21
2019-02-25T06:16:37.219Z,48.14
2019-02-25T06:19:03.205Z,48.07
2019-02-25T06:21:29.188Z,48.12
2019-02-25T06:23:55.160Z,48.08
2019-02-25T06:26:21.159Z,48.07
2019-02-25T06:28:47.185Z,48.01
2019-02-25T06:31:13.225Z,48.02
2019-02-25T06:33:39.340Z,48.05
2019-02-25T06:36:05.310Z,48.01
2019-02-25T06:38:31.368Z,47.98
2019-02-25T06:40:57.329Z,48.02
2019-02-25T06:43:23.330Z,48.06
2019-02-25T06:45:49.296Z,48.05
2019-02-25T06:48:15.384Z,48.00
2019-02-25T06:50:41.359Z,48.00
2019-02-25T06:53:07.329Z,48.06
2019-02-25T06:55:33.327Z,48.06
2019-02-25T06:57:59.291Z,48.05
2019-02-25T07:00:25.320Z,48.10
2019-02-25T07:02:51.585Z,48.13
2019-02-25T07:05:17.619Z,47.30
2019-02-25T07:07:43.632Z,47.88
2019-02-25T07:10:09.613Z,47.89
2019-02-25T07:12:35.672Z,47.96
2019-02-25T07:15:01.680Z,47.95
2019-02-25T07:17:28.746Z,47.98
2019-02-25T07:19:54.791Z,47.96
2019-02-25T07:22:20.931Z,47.99
2019-02-25T07:24:52.784Z,48.02
2019-02-25T07:27:14.642Z,47.99
2019-02-25T07:29:40.624Z,47.97
2019-02-25T07:32:06.673Z,47.94
2019-02-25T07:34:32.678Z,47.89
2019-02-25T07:36:58.650Z,47.85
2019-02-25T07:39:24.652Z,47.83
2019-02-25T07:41:50.676Z,47.81
2019-02-25T07:44:16.723Z,47.83
2019-02-25T07:46:42.741Z,47.79
2019-02-25T07:49:08.780Z,47.78
2019-02-25T07:51:34.759Z,48.31
2019-02-25T07:54:00.730Z,48.54
2019-02-25T07:56:26.743Z,48.51
2019-02-25T07:58:52.715Z,48.52
2019-02-25T08:01:18.687Z,48.53
2019-02-25T08:03:44.733Z,48.52
2019-02-25T08:06:12.011Z,48.54
2019-02-25T08:08:38.210Z,48.57
2019-02-25T08:11:04.258Z,48.56
2019-02-25T08:13:30.315Z,48.60
2019-02-25T08:15:56.342Z,48.58
2019-02-25T08:18:22.569Z,48.56
2019-02-25T08:20:48.548Z,48.58
2019-02-25T08:23:14.588Z,48.59
2019-02-25T08:25:40.571Z,48.61
2019-02-25T08:28:06.543Z,48.60
2019-02-25T08:30:32.551Z,48.59
2019-02-25T08:32:58.653Z,48.58
2019-02-25T08:35:24.720Z,48.60
2019-02-25T08:37:50.778Z,48.65
2019-02-25T08:40:16.783Z,48.67
2019-02-25T08:42:43.137Z,48.45
2019-02-25T08:45:09.176Z,48.47
2019-02-25T08:47:35.185Z,48.41
2019-02-25T08:50:01.217Z,48.38
2019-02-25T08:52:27.225Z,48.36
2019-02-25T08:54:53.288Z,48.22
2019-02-25T08:57:19.275Z,48.54
2019-02-25T08:59:45.364Z,48.79
2019-02-25T09:02:11.388Z,48.79
2019-02-25T09:04:37.508Z,48.84
2019-02-25T09:07:03.495Z,48.84
2019-02-25T09:09:29.579Z,48.89
2019-02-25T09:11:55.554Z,48.88
2019-02-25T09:14:21.678Z,48.93
2019-02-25T09:16:47.643Z,48.90
2019-02-25T09:19:13.644Z,48.92
2019-02-25T09:21:39.700Z,48.93
2019-02-25T09:24:05.723Z,48.94
2019-02-25T09:26:31.709Z,48.96
2019-02-25T09:28:57.682Z,48.97
2019-02-25T09:31:23.665Z,48.98
2019-02-25T09:33:49.666Z,49.02
2019-02-25T09:36:15.624Z,48.50
2019-02-25T09:38:41.638Z,48.55
2019-02-25T09:41:07.699Z,48.59
2019-02-25T09:43:33.678Z,48.65
2019-02-25T09:45:59.659Z,48.65
2019-02-25T09:48:25.727Z,48.67
2019-02-25T09:50:51.737Z,48.60
2019-02-25T09:53:17.708Z,48.82
2019-02-25T09:55:43.719Z,48.64
2019-02-25T09:58:09.691Z,48.51
2019-02-25T10:00:35.818Z,48.40
2019-02-25T10:03:01.919Z,48.38
2019-02-25T10:05:28.051Z,48.40
2019-02-25T10:07:54.054Z,48.37
2019-02-25T10:10:20.109Z,48.34
2019-02-25T10:12:47.149Z,48.36
2019-02-25T10:15:13.168Z,48.42
2019-02-25T10:17:39.151Z,48.43
2019-02-25T10:20:05.134Z,48.47
2019-02-25T10:22:32.809Z,48.50
2019-02-25T10:24:58.923Z,48.47
2019-02-25T10:27:24.974Z,48.45
2019-02-25T10:29:51.023Z,48.45
2019-02-25T10:32:17.139Z,48.38
2019-02-25T10:34:43.189Z,48.35
2019-02-25T10:37:11.015Z,48.33
2019-02-25T10:39:36.947Z,48.35
2019-02-25T10:42:03.065Z,48.43
2019-02-25T10:44:29.723Z,48.39
2019-02-25T10:46:57.380Z,48.38
2019-02-25T10:49:24.500Z,48.41
2019-02-25T10:51:51.120Z,48.70
2019-02-25T10:54:18.944Z,48.59
2019-02-25T10:56:44.945Z,48.39
2019-02-25T10:59:10.928Z,48.37
2019-02-25T11:01:37.583Z,48.38
2019-02-25T11:04:04.647Z,48.36
2019-02-25T11:06:33.435Z,48.34
2019-02-25T11:08:58.348Z,48.34
2019-02-25T11:11:25.396Z,48.31
2019-02-25T11:13:58.767Z,48.21
2019-02-25T11:16:24.723Z,48.17
2019-02-25T11:18:52.326Z,48.21
2019-02-25T11:21:18.439Z,48.13
2019-02-25T11:23:45.173Z,48.14
2019-02-25T11:26:12.294Z,48.14
2019-02-25T11:28:39.211Z,48.17
2019-02-25T11:31:06.008Z,48.19
2019-02-25T11:33:33.957Z,48.29
2019-02-25T11:35:59.759Z,48.25
2019-02-25T11:38:26.491Z,48.16
2019-02-25T11:40:53.559Z,48.11
2019-02-25T11:43:21.532Z,48.14
2019-02-25T11:45:47.285Z,48.65
2019-02-25T11:48:13.264Z,48.68
2019-02-25T11:50:39.267Z,48.22
2019-02-25T11:53:05.250Z,48.31
2019-02-25T11:55:31.257Z,48.42
2019-02-25T11:57:57.298Z,48.27
2019-02-25T12:00:23.286Z,48.48
2019-02-25T12:02:49.402Z,48.34
2019-02-25T12:05:15.425Z,48.27
2019-02-25T12:07:41.416Z,48.41
2019-02-25T12:10:07.406Z,48.64
2019-02-25T12:12:33.480Z,48.54
2019-02-25T12:14:59.450Z,48.25
2019-02-25T12:17:25.542Z,48.54
2019-02-25T12:19:51.524Z,48.75
2019-02-25T12:22:17.499Z,48.42
2019-02-25T12:24:43.502Z,48.46
2019-02-25T12:27:09.479Z,48.30
2019-02-25T12:29:35.523Z,48.34
2019-02-25T12:32:01.644Z,48.26
2019-02-25T12:34:27.769Z,48.27
2019-02-25T12:36:53.756Z,48.16
2019-02-25T12:39:19.753Z,48.26
2019-02-25T12:41:45.822Z,48.21
2019-02-25T12:44:11.812Z,48.70
2019-02-25T12:46:37.786Z,48.75
2019-02-25T12:49:03.819Z,48.62
2019-02-25T12:51:29.838Z,48.58
2019-02-25T12:53:55.872Z,48.27
2019-02-25T12:56:22.767Z,48.59
2019-02-25T12:58:48.791Z,48.76
2019-02-25T13:01:14.937Z,48.95
2019-02-25T13:03:40.960Z,48.30
2019-02-25T13:06:06.933Z,48.92
2019-02-25T13:08:32.955Z,48.62
2019-02-25T13:10:58.964Z,48.40
2019-02-25T13:13:24.983Z,48.06
2019-02-25T13:15:51.073Z,47.80
2019-02-25T13:18:17.069Z,47.90
2019-02-25T13:20:43.138Z,47.93
2019-02-25T13:23:09.147Z,47.94
2019-02-25T13:25:35.177Z,47.97
2019-02-25T13:28:02.137Z,47.98
2019-02-25T13:30:28.978Z,48.01
2019-02-25T13:32:55.122Z,48.02
2019-02-25T13:35:21.201Z,48.38
2019-02-25T13:37:47.248Z,48.25
2019-02-25T13:40:13.328Z,48.17
2019-02-25T13:42:39.395Z,48.16
2019-02-25T13:45:05.771Z,49.94
2019-02-25T13:47:31.932Z,48.72
2019-02-25T13:49:57.990Z,48.65
2019-02-25T13:52:24.056Z,51.85
2019-02-25T13:54:50.181Z,50.00
2019-02-25T13:57:16.270Z,49.55
2019-02-25T13:59:42.362Z,48.97
2019-02-25T14:02:08.414Z,48.54
2019-02-25T14:04:34.530Z,48.42
2019-02-25T14:07:00.591Z,48.40
2019-02-25T14:09:26.587Z,48.35
2019-02-25T14:11:52.956Z,48.38
2019-02-25T14:14:19.042Z,48.44
2019-02-25T14:16:46.364Z,48.44
2019-02-25T14:19:12.423Z,48.46
2019-02-25T14:21:38.570Z,48.48
2019-02-25T14:24:04.548Z,48.52
2019-02-25T14:26:30.559Z,48.55
2019-02-25T14:28:56.615Z,48.60
2019-02-25T14:31:22.893Z,48.70
2019-02-25T14:33:51.937Z,48.75
2019-02-25T14:36:16.708Z,48.77
2019-02-25T14:38:42.773Z,48.81
2019-02-25T14:41:09.071Z,48.78
2019-02-25T14:43:41.771Z,48.84
2019-02-25T14:46:04.869Z,48.88
2019-02-25T14:48:32.921Z,48.93
2019-02-25T14:50:59.772Z,48.96
2019-02-25T14:53:25.833Z,49.00
2019-02-25T14:55:53.158Z,49.02
2019-02-25T14:58:19.581Z,49.07
2019-02-25T15:00:45.644Z,49.07
2019-02-25T15:03:11.720Z,49.12
2019-02-25T15:05:37.832Z,49.16
2019-02-25T15:08:03.912Z,49.16
2019-02-25T15:10:31.581Z,49.25
2019-02-25T15:12:59.115Z,49.29
2019-02-25T15:15:25.436Z,49.32
2019-02-25T15:17:52.712Z,49.34
2019-02-25T15:20:20.514Z,49.42
2019-02-25T15:22:46.830Z,49.42
2019-02-25T15:25:13.725Z,49.42
2019-02-25T15:27:39.874Z,49.52
2019-02-25T15:30:05.945Z,49.51
2019-02-25T15:32:33.552Z,49.55
2019-02-25T15:35:00.038Z,49.61
2019-02-25T15:37:26.112Z,49.61
2019-02-25T15:39:52.211Z,49.58
2019-02-25T15:42:18.635Z,49.65
2019-02-25T15:44:47.263Z,49.71
2019-02-25T15:47:13.294Z,49.65
2019-02-25T15:49:40.313Z,49.69
2019-02-25T15:52:06.384Z,49.75
2019-02-25T15:54:36.848Z,49.71
2019-02-25T15:57:02.904Z,49.70
2019-02-25T15:59:32.157Z,49.72
2019-02-25T16:01:57.252Z,49.77
2019-02-25T16:04:25.552Z,49.75
2019-02-25T16:06:51.296Z,49.85
2019-02-25T16:09:21.237Z,49.88
2019-02-25T16:11:47.505Z,49.88
2019-02-25T16:14:14.104Z,49.87
2019-02-25T16:16:40.189Z,49.94
2019-02-25T16:19:06.273Z,49.99
2019-02-25T16:21:32.330Z,49.97
2019-02-25T16:23:59.658Z,50.04
2019-02-25T16:26:26.171Z,50.08
2019-02-25T16:28:53.190Z,50.09
2019-02-25T16:31:20.364Z,50.13
2019-02-25T16:33:47.086Z,50.11
2019-02-25T16:36:14.591Z,50.06
2019-02-25T16:38:41.979Z,50.08
2019-02-25T16:41:10.151Z,50.11
2019-02-25T16:43:36.328Z,50.10
2019-02-25T16:46:06.114Z,50.12
2019-02-25T16:48:30.814Z,50.11
2019-02-25T16:50:58.053Z,50.12
2019-02-25T16:53:24.363Z,50.17
2019-02-25T16:55:51.555Z,50.15
2019-02-25T16:58:17.664Z,50.18
2019-02-25T17:00:44.426Z,50.08
2019-02-25T17:03:13.138Z,50.18
2019-02-25T17:05:40.292Z,50.21
2019-02-25T17:08:08.168Z,50.20
2019-02-25T17:10:34.939Z,50.19
2019-02-25T17:13:01.765Z,50.13
2019-02-25T17:15:27.778Z,50.20
2019-02-25T17:17:53.815Z,50.18
2019-02-25T17:20:19.986Z,50.18
2019-02-25T17:22:46.132Z,50.13
2019-02-25T17:25:12.687Z,50.25
2019-02-25T17:27:38.753Z,50.27
2019-02-25T17:30:04.838Z,50.24
2019-02-25T17:32:31.736Z,50.14
2019-02-25T17:34:58.642Z,50.16
2019-02-25T17:37:26.711Z,50.20
2019-02-25T17:39:54.529Z,50.19
2019-02-25T17:42:22.086Z,50.17
2019-02-25T17:44:48.547Z,49.97
2019-02-25T17:47:24.025Z,50.32
2019-02-25T17:49:43.053Z,50.33
2019-02-25T17:52:09.527Z,50.12
2019-02-25T17:54:37.651Z,50.11
2019-02-25T17:57:04.953Z,50.10
2019-02-25T17:59:31.580Z,50.20
2019-02-25T18:01:57.841Z,50.11
2019-02-25T18:04:26.019Z,50.02
2019-02-25T18:06:51.842Z,49.96
2019-02-25T18:09:22.497Z,50.03
2019-02-25T18:11:49.083Z,50.07
2019-02-25T18:14:17.081Z,50.00
2019-02-25T18:16:46.660Z,50.00
2019-02-25T18:19:13.907Z,49.92
2019-02-25T18:21:43.044Z,50.05
2019-02-25T18:24:10.028Z,50.02
2019-02-25T18:26:35.872Z,50.04
2019-02-25T18:29:01.945Z,49.99
2019-02-25T18:31:28.412Z,50.35
2019-02-25T18:33:54.463Z,50.43
2019-02-25T18:36:21.923Z,50.44
2019-02-25T18:38:49.016Z,50.43
2019-02-25T18:41:16.091Z,50.44
2019-02-25T18:43:42.935Z,50.39
2019-02-25T18:46:09.982Z,50.41
2019-02-25T18:48:36.044Z,50.38
2019-02-25T18:51:03.344Z,50.37
2019-02-25T18:53:29.847Z,50.38
2019-02-25T18:55:56.727Z,50.36
2019-02-25T18:58:25.917Z,50.37
2019-02-25T19:00:52.261Z,50.39
2019-02-25T19:03:18.387Z,50.10
2019-02-25T19:05:44.509Z,50.47
2019-02-25T19:08:14.475Z,50.46
2019-02-25T19:10:41.280Z,50.27
2019-02-25T19:13:06.165Z,50.27
2019-02-25T19:15:32.280Z,50.25
2019-02-25T19:17:58.310Z,50.24
2019-02-25T19:20:24.431Z,50.24
2019-02-25T19:22:50.526Z,50.18
2019-02-25T19:25:18.153Z,50.19
2019-02-25T19:27:44.406Z,50.08
2019-02-25T19:30:10.493Z,50.12
2019-02-25T19:32:39.887Z,50.10
2019-02-25T19:35:06.853Z,50.02
2019-02-25T19:37:33.923Z,49.92
2019-02-25T19:39:59.922Z,49.86
2019-02-25T19:42:26.965Z,49.93
2019-02-25T19:44:53.920Z,49.93
2019-02-25T19:47:20.124Z,49.74
2019-02-25T19:49:46.200Z,49.67
2019-02-25T19:52:14.326Z,49.83
2019-02-25T19:54:40.856Z,49.77
2019-02-25T19:57:08.142Z,49.65
2019-02-25T19:59:34.312Z,49.60
2019-02-25T20:02:00.309Z,49.50
2019-02-25T20:04:26.385Z,49.55
2019-02-25T20:06:53.719Z,49.42
2019-02-25T20:09:20.118Z,49.38
2019-02-25T20:11:46.201Z,49.25
2019-02-25T20:14:16.546Z,49.13
2019-02-25T20:16:40.057Z,49.01
2019-02-25T20:19:06.807Z,48.95
2019-02-25T20:21:32.930Z,48.88
2019-02-25T20:23:58.948Z,48.82
2019-02-25T20:26:26.961Z,48.75
2019-02-25T20:28:53.153Z,48.74
2019-02-25T20:31:19.256Z,48.70
2019-02-25T20:33:45.255Z,48.71
2019-02-25T20:36:11.346Z,48.71
2019-02-25T20:38:39.303Z,48.72
2019-02-25T20:41:06.144Z,48.74
2019-02-25T20:43:32.755Z,48.68
2019-02-25T20:46:01.106Z,48.72
2019-02-25T20:48:27.518Z,48.72
2019-02-25T20:50:53.743Z,48.76
2019-02-25T20:53:19.866Z,48.79
2019-02-25T20:55:48.113Z,48.86
2019-02-25T20:58:16.178Z,48.87
2019-02-25T21:00:42.429Z,48.88
2019-02-25T21:03:12.047Z,48.88
2019-02-25T21:05:37.117Z,48.83
2019-02-25T21:08:03.166Z,48.83
2019-02-25T21:10:32.603Z,48.85
2019-02-25T21:12:59.543Z,48.84
2019-02-25T21:15:24.967Z,48.58
2019-02-25T21:17:52.026Z,48.93
2019-02-25T21:20:19.661Z,49.16
2019-02-25T21:22:46.595Z,49.56
2019-02-25T21:25:12.602Z,49.70
2019-02-25T21:27:40.800Z,49.77
2019-02-25T21:30:08.192Z,49.46
2019-02-25T21:32:34.049Z,49.23
2019-02-25T21:35:01.930Z,49.21
2019-02-25T21:37:29.299Z,49.16
2019-02-25T21:39:56.129Z,49.25
2019-02-25T21:42:24.579Z,49.21
2019-02-25T21:44:52.182Z,49.30
2019-02-25T21:47:20.175Z,49.31
2019-02-25T21:49:45.996Z,49.31
2019-02-25T21:52:14.788Z,49.07
2019-02-25T21:54:39.713Z,49.00
2019-02-25T21:57:07.440Z,49.02
2019-02-25T21:59:34.946Z,49.37
2019-02-25T22:02:02.069Z,49.33
2019-02-25T22:04:28.930Z,49.34
2019-02-25T22:06:55.778Z,49.35
2019-02-25T22:09:35.304Z,49.40
2019-02-25T22:11:50.374Z,49.47
2019-02-25T22:14:18.666Z,49.44
2019-02-25T22:16:44.456Z,50.55
2019-02-25T22:19:12.159Z,50.14
2019-02-25T22:21:38.331Z,50.19
2019-02-25T22:24:05.822Z,50.31
2019-02-25T22:26:33.369Z,51.02
2019-02-25T22:29:01.743Z,50.73
2019-02-25T22:31:27.507Z,50.77
2019-02-25T22:33:53.535Z,51.08
2019-02-25T22:36:19.503Z,50.99
2019-02-25T22:38:45.520Z,51.02
2019-02-25T22:41:11.520Z,50.69
2019-02-25T22:43:39.180Z,51.07
2019-02-25T22:46:07.120Z,51.72
2019-02-25T22:48:34.975Z,52.29
2019-02-25T22:51:02.417Z,52.08
2019-02-25T22:53:28.498Z,51.96
2019-02-25T22:55:54.818Z,51.62
2019-02-25T22:58:20.975Z,52.47
2019-02-25T23:00:46.974Z,52.61
2019-02-25T23:03:15.262Z,52.85
2019-02-25T23:05:43.054Z,53.00
2019-02-25T23:08:10.907Z,53.21
2019-02-25T23:10:40.044Z,54.10
2019-02-25T23:13:04.245Z,53.40
2019-02-25T23:15:30.462Z,53.50
2019-02-25T23:18:05.075Z,53.34
2019-02-25T23:20:25.186Z,53.40
2019-02-25T23:22:53.041Z,53.33
2019-02-25T23:25:19.763Z,53.27
2019-02-25T23:27:46.851Z,52.99
2019-02-25T23:30:12.839Z,52.68
2019-02-25T23:32:39.513Z,52.94
2019-02-25T23:35:09.495Z,52.98
2019-02-25T23:37:33.349Z,53.36
2019-02-25T23:40:02.223Z,53.23
2019-02-25T23:42:27.124Z,52.98
2019-02-25T23:44:53.150Z,53.23
2019-02-25T23:47:19.153Z,53.08
2019-02-25T23:49:46.268Z,52.55
2019-02-25T23:52:12.870Z,52.88
2019-02-25T23:54:38.865Z,52.80
2019-02-25T23:57:04.893Z,52.96
2019-02-25T23:59:30.879Z,52.68
